| time (UTC) | temp F | wind direction | speed MPH | gust MPH | rain 1hr in | rain 24hr in | rain mn in | humidity % | barometer mb |
| 20260903084544 | 70 | 0 | 0.0 | 0.0 | 0.24 | 0.81 | 0.79 | 100 | 1018.7 |
| 20260903083044 | 70 | 0 | 0.0 | 0.0 | 0.12 | 0.69 | 0.67 | 100 | 1018.0 |
| 20260903081543 | 70 | 0 | 0.0 | 0.0 | 0.11 | 0.68 | 0.66 | 100 | 1017.7 |
| 20260903080045 | 70 | 0 | 0.0 | 0.0 | 0.02 | 0.58 | 0.56 | 100 | 1017.8 |
| 20260903074543 | 70 | 0 | 0.0 | 0.0 | 0.02 | 0.57 | 0.55 | 100 | 1017.2 |
| 20260903073056 | 70 | 0 | 0.0 | 0.0 | 0.08 | 0.57 | 0.55 | 100 | 1017.1 |
| 20260903071540 | 70 | 0 | 0.0 | 0.0 | 0.18 | 0.57 | 0.55 | 100 | 1017.3 |
| 20260903070044 | 70 | 0 | 0.0 | 0.0 | 0.52 | 0.56 | 0.54 | 100 | 1017.4 |
| 20260903064543 | 70 | 0 | 0.0 | 0.0 | 0.52 | 0.55 | 0.52 | 100 | 1017.5 |
| 20260903063044 | 70 | 0 | 0.0 | 0.0 | 0.46 | 0.48 | 0.46 | 100 | 1017.9 |
| 20260903061540 | 70 | 0 | 0.0 | 0.0 | 0.35 | 0.37 | 0.35 | 100 | 1018.4 |
| 20260903060039 | 70 | 0 | 0.0 | 0.0 | 0.01 | 0.03 | 0.01 | 100 | 1019.1 |
| 20260903054543 | 70 | 0 | 0.0 | 0.0 | 0.00 | 0.02 | 0.00 | 100 | 1018.0 |
| 20260903053042 | 70 | 0 | 0.0 | 0.0 | 0.00 | 0.02 | 0.00 | 100 | 1018.5 |
| 20260903051550 | 70 | 0 | 0.0 | 0.0 | 0.00 | 0.02 | 0.00 | 100 | 1018.6 |
| 20260903050044 | 70 | 0 | 0.0 | 0.0 | 0.00 | 0.02 | 0.00 | 100 | 1018.4 |
| 20260903044539 | 70 | 0 | 0.0 | 0.0 | 0.00 | 0.02 | 0.00 | 100 | 1018.1 |
| 20260903043041 | 70 | 0 | 0.0 | 0.0 | 0.00 | 0.02 | 0.00 | 100 | 1018.3 |
| 20260903041545 | 71 | 0 | 0.0 | 0.0 | 0.00 | 0.02 | 0.00 | 100 | 1018.7 |
| 20260903040043 | 71 | 0 | 0.0 | 0.0 | 0.00 | 0.02 | 0.00 | 100 | 1018.9 |
| 20260903034540 | 71 | 0 | 0.0 | 0.0 | 0.00 | 0.02 | 0.02 | 100 | 1019.2 |
| 20260903033043 | 71 | 0 | 0.0 | 0.0 | 0.00 | 0.02 | 0.02 | 100 | 1018.7 |
| 20260903031544 | 71 | 0 | 0.0 | 0.0 | 0.00 | 0.02 | 0.02 | 100 | 1018.8 |
| 20260903030044 | 71 | 0 | 0.0 | 0.0 | 0.00 | 0.02 | 0.02 | 100 | 1018.6 |
| 20260903024541 | 71 | 0 | 0.0 | 0.0 | 0.00 | 0.02 | 0.02 | 100 | 1018.7 |
| 20260903023058 | 71 | 0 | 0.0 | 0.0 | 0.00 | 0.02 | 0.02 | 100 | 1019.1 |
| 20260903021546 | 71 | 0 | 0.0 | 0.0 | 0.00 | 0.02 | 0.02 | 100 | 1018.5 |
| 20260903020042 | 71 | 0 | 0.0 | 0.0 | 0.00 | 0.02 | 0.02 | 100 | 1018.4 |
| 20260903014541 | 71 | 0 | 0.0 | 0.0 | 0.00 | 0.10 | 0.02 | 100 | 1018.8 |
| 20260903013042 | 71 | 0 | 0.0 | 0.0 | 0.00 | 0.10 | 0.02 | 100 | 1018.9 |
| 20260903011543 | 71 | 0 | 0.0 | 0.0 | 0.00 | 0.10 | 0.02 | 99 | 1019.0 |
| 20260903010042 | 71 | 0 | 0.0 | 0.0 | 0.00 | 0.10 | 0.02 | 98 | 1019.0 |
| 20260903004542 | 71 | 0 | 0.0 | 0.0 | 0.00 | 0.12 | 0.02 | 97 | 1019.1 |
| 20260903003050 | 72 | 0 | 0.0 | 0.0 | 0.00 | 0.12 | 0.02 | 98 | 1018.9 |
| 20260903001542 | 72 | 0 | 0.0 | 0.0 | 0.00 | 0.12 | 0.02 | 97 | 1018.7 |
| 20260903000043 | 72 | 0 | 0.0 | 0.0 | 0.00 | 0.12 | 0.02 | 97 | 1018.4 |
| 20260902234543 | 72 | 0 | 0.0 | 0.0 | 0.00 | 0.12 | 0.02 | 97 | 1018.3 |
| 20260902233039 | 72 | 0 | 0.0 | 0.0 | 0.00 | 0.12 | 0.02 | 97 | 1018.3 |
| 20260902231555 | 72 | 0 | 0.0 | 0.0 | 0.00 | 0.12 | 0.02 | 98 | 1018.2 |
| 20260902230043 | 72 | 0 | 0.0 | 0.0 | 0.00 | 0.12 | 0.02 | 98 | 1018.5 |
| 20260902224540 | 72 | 0 | 0.0 | 0.0 | 0.00 | 0.12 | 0.02 | 98 | 1018.7 |
| 20260902223039 | 72 | 0 | 0.0 | 0.0 | 0.00 | 0.12 | 0.02 | 99 | 1019.0 |
| 20260902221553 | 72 | 0 | 0.0 | 0.0 | 0.00 | 0.12 | 0.02 | 100 | 1018.9 |
| 20260902220042 | 72 | 0 | 0.0 | 0.0 | 0.00 | 0.12 | 0.02 | 100 | 1018.8 |
| 20260902214547 | 72 | 0 | 0.0 | 0.0 | 0.00 | 0.12 | 0.02 | 100 | 1019.0 |
| 20260902213050 | 72 | 0 | 0.0 | 0.0 | 0.00 | 0.12 | 0.02 | 100 | 1018.8 |
| 20260902211539 | 72 | 0 | 0.0 | 0.0 | 0.00 | 0.12 | 0.02 | 100 | 1018.8 |
| 20260902210043 | 72 | 0 | 0.0 | 0.0 | 0.00 | 0.12 | 0.02 | 100 | 1018.9 |
| 20260902204543 | 72 | 0 | 0.0 | 0.0 | 0.00 | 0.12 | 0.02 | 100 | 1018.8 |
| 20260902203045 | 72 | 0 | 0.0 | 0.0 | 0.01 | 0.12 | 0.02 | 100 | 1018.6 |
| 20260902201544 | 72 | 0 | 0.0 | 0.0 | 0.01 | 0.12 | 0.02 | 100 | 1018.6 |
| 20260902200044 | 72 | 0 | 0.0 | 0.0 | 0.01 | 0.12 | 0.02 | 100 | 1018.9 |
| 20260902194544 | 72 | 0 | 0.0 | 0.0 | 0.01 | 0.12 | 0.02 | 100 | 1019.2 |
| 20260902193054 | 72 | 0 | 0.0 | 0.0 | 0.00 | 0.11 | 0.01 | 100 | 1019.1 |
| 20260902191545 | 72 | 0 | 0.0 | 0.0 | 0.00 | 0.11 | 0.01 | 100 | 1019.3 |
| 20260902190042 | 72 | 0 | 0.0 | 0.0 | 0.01 | 0.11 | 0.01 | 100 | 1019.6 |
| 20260902184544 | 72 | 0 | 0.0 | 0.0 | 0.01 | 0.11 | 0.01 | 100 | 1019.6 |
| 20260902183043 | 72 | 0 | 0.0 | 0.0 | 0.01 | 0.11 | 0.01 | 100 | 1019.7 |
| 20260902181546 | 72 | 0 | 0.0 | 0.0 | 0.01 | 0.11 | 0.01 | 100 | 1019.6 |
| 20260902180042 | 72 | 0 | 0.0 | 0.0 | 0.00 | 0.10 | 0.00 | 100 | 1019.6 |
| 20260902174552 | 72 | 0 | 0.0 | 0.0 | 0.00 | 0.10 | 0.00 | 99 | 1020.0 |
| 20260902173045 | 73 | 0 | 0.0 | 0.0 | 0.00 | 0.10 | 0.00 | 98 | 1020.6 |
| 20260902171542 | 73 | 0 | 0.0 | 0.0 | 0.00 | 0.10 | 0.00 | 96 | 1020.7 |
| 20260902170043 | 73 | 0 | 0.0 | 0.0 | 0.00 | 0.10 | 0.00 | 96 | 1020.6 |
| 20260902164542 | 73 | 0 | 0.0 | 0.0 | 0.00 | 0.10 | 0.00 | 96 | 1020.4 |
| 20260902163039 | 73 | 0 | 0.0 | 0.0 | 0.00 | 0.10 | 0.00 | 96 | 1020.1 |
| 20260902161544 | 73 | 0 | 0.0 | 0.0 | 0.00 | 0.10 | 0.00 | 96 | 1020.1 |
| 20260902160048 | 73 | 0 | 0.0 | 0.0 | 0.00 | 0.10 | 0.00 | 97 | 1020.3 |
| 20260902154548 | 72 | 0 | 0.0 | 0.0 | 0.00 | 0.10 | 0.00 | 97 | 1020.3 |
| 20260902153043 | 72 | 0 | 0.0 | 0.0 | 0.00 | 0.10 | 0.00 | 98 | 1020.4 |
| 20260902151537 | 72 | 0 | 0.0 | 0.0 | 0.00 | 0.10 | 0.00 | 98 | 1020.4 |
| 20260902150042 | 72 | 0 | 0.0 | 0.0 | 0.00 | 0.10 | 0.00 | 99 | 1020.4 |
| 20260902144541 | 72 | 0 | 0.0 | 0.0 | 0.00 | 0.10 | 0.00 | 99 | 1020.3 |
| 20260902143038 | 71 | 0 | 0.0 | 0.0 | 0.00 | 0.10 | 0.00 | 100 | 1020.0 |
| 20260902141538 | 71 | 0 | 0.0 | 0.0 | 0.00 | 0.10 | 0.00 | 100 | 1020.4 |
| 20260902140048 | 71 | 0 | 0.0 | 0.0 | 0.00 | 0.10 | 0.00 | 100 | 1020.1 |
| 20260902134541 | 70 | 0 | 0.0 | 0.0 | 0.00 | 0.10 | 0.00 | 100 | 1020.3 |
| 20260902133042 | 70 | 0 | 0.0 | 0.0 | 0.00 | 0.10 | 0.00 | 100 | 1020.1 |
| 20260902131539 | 70 | 0 | 0.0 | 0.0 | 0.00 | 0.10 | 0.00 | 100 | 1019.9 |
| 20260902130043 | 69 | 0 | 0.0 | 0.0 | 0.00 | 0.10 | 0.00 | 100 | 1019.9 |
| 20260902124536 | 69 | 0 | 0.0 | 0.0 | 0.00 | 0.10 | 0.00 | 100 | 1019.8 |
| 20260902123041 | 69 | 0 | 0.0 | 0.0 | 0.00 | 0.10 | 0.00 | 100 | 1019.8 |
| 20260902121539 | 69 | 0 | 0.0 | 0.0 | 0.00 | 0.10 | 0.00 | 100 | 1019.5 |
| 20260902120038 | 69 | 0 | 0.0 | 0.0 | 0.00 | 0.10 | 0.00 | 100 | 1019.6 |
| 20260902114610 | 69 | 0 | 0.0 | 0.0 | 0.00 | 0.10 | 0.00 | 100 | 1019.7 |
| 20260902113048 | 69 | 0 | 0.0 | 0.0 | 0.00 | 0.10 | 0.00 | 100 | 1019.6 |
| 20260902111540 | 69 | 0 | 0.0 | 0.0 | 0.00 | 0.10 | 0.00 | 100 | 1019.6 |
| 20260902110038 | 70 | 0 | 0.0 | 0.0 | 0.00 | 0.10 | 0.00 | 100 | 1019.4 |
| 20260902104541 | 70 | 0 | 0.0 | 0.0 | 0.00 | 0.10 | 0.00 | 100 | 1019.4 |
| 20260902103052 | 70 | 0 | 0.0 | 0.0 | 0.00 | 0.10 | 0.00 | 100 | 1019.2 |
| 20260902101538 | 70 | 0 | 0.0 | 0.0 | 0.00 | 0.10 | 0.00 | 100 | 1019.2 |
| 20260902100055 | 70 | 0 | 0.0 | 0.0 | 0.00 | 0.10 | 0.00 | 100 | 1019.2 |
| 20260902094542 | 70 | 0 | 0.0 | 0.0 | 0.00 | 0.10 | 0.00 | 100 | 1019.1 |
| 20260902093054 | 70 | 0 | 0.0 | 0.0 | 0.00 | 0.10 | 0.00 | 100 | 1018.9 |
| 20260902091538 | 70 | 0 | 0.0 | 0.0 | 0.00 | 0.10 | 0.00 | 100 | 1018.7 |
| 20260902090041 | 70 | 0 | 0.0 | 0.0 | 0.00 | 0.10 | 0.00 | 100 | 1018.6 |